createdAt,value
2018-05-03T00:00:25.199Z,1003.6
2018-05-03T00:01:27.551Z,1003.6
2018-05-03T00:02:30.187Z,1003.6
2018-05-03T00:03:32.546Z,1003.7
2018-05-03T00:04:34.902Z,1003.6
2018-05-03T00:05:37.535Z,1003.7
2018-05-03T00:06:40.182Z,1003.6
2018-05-03T00:07:42.538Z,1003.7
2018-05-03T00:08:44.894Z,1003.7
2018-05-03T00:09:47.254Z,1003.7
2018-05-03T00:10:49.603Z,1003.6
2018-05-03T00:11:51.963Z,1003.7
2018-05-03T00:12:54.602Z,1003.7
2018-05-03T00:13:56.955Z,1003.7
2018-05-03T00:14:59.311Z,1003.6
2018-05-03T00:16:02.234Z,1003.6
2018-05-03T00:17:04.585Z,1003.6
2018-05-03T00:18:07.224Z,1003.5
2018-05-03T00:19:09.580Z,1003.5
2018-05-03T00:20:11.940Z,1003.5
2018-05-03T00:21:14.302Z,1003.6
2018-05-03T00:22:16.654Z,1003.6
2018-05-03T00:23:19.012Z,1003.5
2018-05-03T00:24:21.369Z,1003.6
2018-05-03T00:25:23.720Z,1003.6
2018-05-03T00:26:26.461Z,1003.5
2018-05-03T00:27:28.820Z,1003.5
2018-05-03T00:28:31.174Z,1003.5
2018-05-03T00:29:33.539Z,1003.5
2018-05-03T00:30:36.176Z,1003.5
2018-05-03T00:31:38.531Z,1003.4
2018-05-03T00:32:40.885Z,1003.4
2018-05-03T00:33:43.625Z,1003.4
2018-05-03T00:34:45.983Z,1003.4
2018-05-03T00:35:48.620Z,1003.5
2018-05-03T00:36:50.977Z,1003.4
2018-05-03T00:37:53.718Z,1003.4
2018-05-03T00:38:56.073Z,1003.4
2018-05-03T00:39:58.428Z,1003.4
2018-05-03T00:41:00.784Z,1003.4
2018-05-03T00:42:03.159Z,1003.3
2018-05-03T00:43:05.515Z,1003.3
2018-05-03T00:44:07.873Z,1003.3
2018-05-03T00:45:10.223Z,1003.3
2018-05-03T00:46:12.580Z,1003.3
2018-05-03T00:47:14.938Z,1003.3
2018-05-03T00:48:17.300Z,1003.3
2018-05-03T00:49:19.667Z,1003.3
2018-05-03T00:50:22.033Z,1003.3
2018-05-03T00:51:24.675Z,1003.3
2018-05-03T00:52:27.028Z,1003.3
2018-05-03T00:53:29.665Z,1003.3
2018-05-03T00:54:32.019Z,1003.3
2018-05-03T00:55:34.375Z,1003.3
2018-05-03T00:56:37.011Z,1003.3
2018-05-03T00:57:39.365Z,1003.3
2018-05-03T00:58:41.723Z,1003.3
2018-05-03T00:59:44.080Z,1003.3
2018-05-03T01:00:46.720Z,1003.3
2018-05-03T01:01:49.075Z,1003.2
2018-05-03T01:02:51.434Z,1003.3
2018-05-03T01:03:53.787Z,1003.2
2018-05-03T01:04:56.155Z,1003.2
2018-05-03T01:05:58.828Z,1003.2
2018-05-03T01:07:01.197Z,1003.2
2018-05-03T01:08:03.578Z,1003.2
2018-05-03T01:09:06.245Z,1003.2
2018-05-03T01:10:08.910Z,1003.2
2018-05-03T01:11:11.296Z,1003.2
2018-05-03T01:12:13.676Z,1003.2
2018-05-03T01:13:16.450Z,1003.2
2018-05-03T01:14:19.216Z,1003.2
2018-05-03T01:15:21.600Z,1003.2
2018-05-03T01:16:23.968Z,1003.3
2018-05-03T01:17:26.362Z,1003.3
2018-05-03T01:18:28.742Z,1003.3
2018-05-03T01:19:31.124Z,1003.3
2018-05-03T01:20:33.808Z,1003.3
2018-05-03T01:21:36.186Z,1003.2
2018-05-03T01:22:38.851Z,1003.3
2018-05-03T01:23:41.240Z,1003.2
2018-05-03T01:24:43.612Z,1003.2
2018-05-03T01:25:45.995Z,1003.2
2018-05-03T01:26:49.319Z,1003.2
2018-05-03T01:27:52.011Z,1003.1
2018-05-03T01:28:54.684Z,1003.1
2018-05-03T01:29:57.079Z,1003.1
2018-05-03T01:30:59.445Z,1003.1
2018-05-03T01:32:01.826Z,1003.1
2018-05-03T01:33:04.606Z,1003
2018-05-03T01:34:06.988Z,1003.1
2018-05-03T01:35:09.373Z,1003.1
2018-05-03T01:36:11.749Z,1003.1
2018-05-03T01:37:14.125Z,1003.1
2018-05-03T01:38:16.820Z,1003.1
2018-05-03T01:39:19.205Z,1003.1
2018-05-03T01:40:22.135Z,1003.1
2018-05-03T01:41:24.530Z,1003.1
2018-05-03T01:42:26.907Z,1003.1
2018-05-03T01:43:29.298Z,1003.1
2018-05-03T01:44:31.685Z,1003.1
2018-05-03T01:45:34.344Z,1003.2
2018-05-03T01:46:36.726Z,1003.2
2018-05-03T01:47:39.153Z,1003.2
2018-05-03T01:48:41.484Z,1003.2
2018-05-03T01:49:43.877Z,1003.2
2018-05-03T01:50:46.249Z,1003.2
2018-05-03T01:51:48.629Z,1003.1
2018-05-03T01:52:51.012Z,1003.2
2018-05-03T01:53:53.389Z,1003.1
2018-05-03T01:54:55.777Z,1003.2
2018-05-03T01:55:58.155Z,1003.2
2018-05-03T01:57:00.539Z,1003.1
2018-05-03T01:58:02.925Z,1003.1
2018-05-03T01:59:05.305Z,1003.2
2018-05-03T02:00:07.693Z,1003.1
2018-05-03T02:01:10.350Z,1003.1
2018-05-03T02:02:12.725Z,1003.1
2018-05-03T02:03:15.107Z,1003.1
2018-05-03T02:04:17.764Z,1003.2
2018-05-03T02:05:20.518Z,1003.1
2018-05-03T02:06:22.904Z,1003.1
2018-05-03T02:07:25.291Z,1003.2
2018-05-03T02:08:28.056Z,1003.2
2018-05-03T02:09:30.446Z,1003.2
2018-05-03T02:10:33.403Z,1003.2
2018-05-03T02:11:35.792Z,1003.2
2018-05-03T02:12:38.178Z,1003.2
2018-05-03T02:13:40.549Z,1003.2
2018-05-03T02:14:43.213Z,1003.2
2018-05-03T02:15:45.912Z,1003.2
2018-05-03T02:16:48.288Z,1003.2
2018-05-03T02:17:51.053Z,1003.1
2018-05-03T02:18:53.434Z,1003.1
2018-05-03T02:19:55.812Z,1003
2018-05-03T02:20:58.194Z,1003.1
2018-05-03T02:22:00.582Z,1003.1
2018-05-03T02:23:02.948Z,1003.1
2018-05-03T02:24:05.333Z,1003.1
2018-05-03T02:25:07.732Z,1003.1
2018-05-03T02:26:10.109Z,1003.1
2018-05-03T02:27:12.489Z,1003.1
2018-05-03T02:28:14.901Z,1003.1
2018-05-03T02:29:17.572Z,1003.1
2018-05-03T02:30:19.958Z,1003
2018-05-03T02:31:22.610Z,1003.1
2018-05-03T02:32:25.273Z,1003.1
2018-05-03T02:33:27.956Z,1003.1
2018-05-03T02:34:30.370Z,1003.1
2018-05-03T02:35:33.742Z,1003.2
2018-05-03T02:36:36.121Z,1003.1
2018-05-03T02:37:38.513Z,1003.1
2018-05-03T02:38:40.887Z,1003.1
2018-05-03T02:39:43.273Z,1003.1
2018-05-03T02:40:45.667Z,1003.1
2018-05-03T02:41:48.040Z,1003
2018-05-03T02:42:50.704Z,1003
2018-05-03T02:43:53.088Z,1003
2018-05-03T02:44:55.473Z,1003
2018-05-03T02:45:58.157Z,1003.1
2018-05-03T02:47:00.548Z,1003
2018-05-03T02:48:03.549Z,1003.1
2018-05-03T02:49:06.296Z,1003
2018-05-03T02:50:08.979Z,1003
2018-05-03T02:51:11.365Z,1003
2018-05-03T02:52:13.742Z,1003
2018-05-03T02:53:17.093Z,1003.1
2018-05-03T02:54:20.323Z,1003.1
2018-05-03T02:55:22.699Z,1003
2018-05-03T02:56:25.090Z,1003
2018-05-03T02:57:27.751Z,1003
2018-05-03T02:58:31.370Z,1003.1
2018-05-03T02:59:33.755Z,1003
2018-05-03T03:00:36.133Z,1003
2018-05-03T03:01:38.507Z,1003.1
2018-05-03T03:02:41.561Z,1003.1
2018-05-03T03:03:43.935Z,1003.1
2018-05-03T03:04:46.324Z,1003.1
2018-05-03T03:05:49.024Z,1003.1
2018-05-03T03:06:51.981Z,1003.1
2018-05-03T03:07:54.659Z,1003
2018-05-03T03:08:57.043Z,1003.1
2018-05-03T03:09:59.808Z,1003
2018-05-03T03:11:02.480Z,1003.1
2018-05-03T03:12:05.142Z,1003.1
2018-05-03T03:13:07.519Z,1003.1
2018-05-03T03:14:09.894Z,1003.1
2018-05-03T03:15:12.573Z,1003.2
2018-05-03T03:16:14.957Z,1003.1
2018-05-03T03:17:17.342Z,1003.1
2018-05-03T03:18:19.721Z,1003.1
2018-05-03T03:19:22.098Z,1003.1
2018-05-03T03:20:24.491Z,1003.1
2018-05-03T03:21:26.873Z,1003.2
2018-05-03T03:22:29.253Z,1003.1
2018-05-03T03:23:31.914Z,1003.1
2018-05-03T03:24:34.293Z,1003.2
2018-05-03T03:25:36.721Z,1003.1
2018-05-03T03:26:39.094Z,1003
2018-05-03T03:27:41.475Z,1003.1
2018-05-03T03:28:44.134Z,1003.1
2018-05-03T03:29:46.527Z,1003.1
2018-05-03T03:30:48.914Z,1003.1
2018-05-03T03:31:51.293Z,1003.1
2018-05-03T03:32:53.966Z,1003.1
2018-05-03T03:33:56.630Z,1003.1
2018-05-03T03:34:59.007Z,1003.1
2018-05-03T03:36:01.673Z,1003.1
2018-05-03T03:37:04.408Z,1003.1
2018-05-03T03:38:06.786Z,1003.2
2018-05-03T03:39:09.185Z,1003.1
2018-05-03T03:40:11.558Z,1003.2
2018-05-03T03:41:14.516Z,1003.2
2018-05-03T03:42:17.460Z,1003.1
2018-05-03T03:43:19.832Z,1003.2
2018-05-03T03:44:22.522Z,1003.1
2018-05-03T03:45:25.175Z,1003.1
2018-05-03T03:46:27.544Z,1003.2
2018-05-03T03:47:30.381Z,1003.2
2018-05-03T03:48:32.762Z,1003.1
2018-05-03T03:49:35.439Z,1003.1
2018-05-03T03:50:37.825Z,1003.1
2018-05-03T03:51:40.195Z,1003
2018-05-03T03:52:42.963Z,1003.1
2018-05-03T03:53:45.356Z,1003
2018-05-03T03:54:47.727Z,1003
2018-05-03T03:55:50.109Z,1003
2018-05-03T03:56:52.498Z,1003
2018-05-03T03:57:54.885Z,1003
2018-05-03T03:58:57.257Z,1003
2018-05-03T04:00:00.032Z,1003
2018-05-03T04:01:02.415Z,1003.1
2018-05-03T04:02:05.073Z,1003.2
2018-05-03T04:03:07.462Z,1003.3
2018-05-03T04:04:09.843Z,1003.3
2018-05-03T04:05:12.223Z,1003.3
2018-05-03T04:06:14.602Z,1003.2
2018-05-03T04:07:17.259Z,1003.2
2018-05-03T04:08:20.027Z,1003.2
2018-05-03T04:09:22.988Z,1003.2
2018-05-03T04:10:25.663Z,1003.1
2018-05-03T04:11:28.037Z,1003.2
2018-05-03T04:12:30.422Z,1003.2
2018-05-03T04:13:32.797Z,1003.2
2018-05-03T04:14:35.197Z,1003.2
2018-05-03T04:15:37.580Z,1003.2
2018-05-03T04:16:39.961Z,1003.2
2018-05-03T04:17:42.341Z,1003.2
2018-05-03T04:18:44.744Z,1003.1
2018-05-03T04:19:48.096Z,1003.2
2018-05-03T04:20:50.470Z,1003.2
2018-05-03T04:21:53.418Z,1003.2
2018-05-03T04:22:55.797Z,1003.2
2018-05-03T04:23:58.176Z,1003.2
2018-05-03T04:25:00.576Z,1003.2
2018-05-03T04:26:02.957Z,1003.2
2018-05-03T04:27:06.005Z,1003.2
2018-05-03T04:28:08.661Z,1003.3
2018-05-03T04:29:11.436Z,1003.3
2018-05-03T04:30:13.811Z,1003.3
2018-05-03T04:31:16.189Z,1003.3
2018-05-03T04:32:18.571Z,1003.3
2018-05-03T04:33:21.253Z,1003.3
2018-05-03T04:34:23.636Z,1003.3
2018-05-03T04:35:26.025Z,1003.3
2018-05-03T04:36:28.387Z,1003.3
2018-05-03T04:37:31.065Z,1003.3
2018-05-03T04:38:33.732Z,1003.3
2018-05-03T04:39:36.403Z,1003.3
2018-05-03T04:40:39.171Z,1003.3
2018-05-03T04:41:41.546Z,1003.3
2018-05-03T04:42:43.925Z,1003.4
2018-05-03T04:43:46.595Z,1003.3
2018-05-03T04:44:48.985Z,1003.4
2018-05-03T04:45:51.927Z,1003.4
2018-05-03T04:46:54.395Z,1003.4
2018-05-03T04:47:56.692Z,1003.4
2018-05-03T04:48:59.075Z,1003.4
2018-05-03T04:50:01.455Z,1003.4
2018-05-03T04:51:04.496Z,1003.4
2018-05-03T04:52:07.289Z,1003.4
2018-05-03T04:53:09.665Z,1003.4
2018-05-03T04:54:12.458Z,1003.5
2018-05-03T04:55:14.731Z,1003.4
2018-05-03T04:56:17.497Z,1003.4
2018-05-03T04:57:19.880Z,1003.4
2018-05-03T04:58:22.260Z,1003.5
2018-05-03T04:59:24.917Z,1003.5
2018-05-03T05:00:27.306Z,1003.5
2018-05-03T05:01:29.681Z,1003.5
2018-05-03T05:02:32.079Z,1003.5
2018-05-03T05:03:34.465Z,1003.5
2018-05-03T05:04:37.139Z,1003.5
2018-05-03T05:05:39.520Z,1003.5
2018-05-03T05:06:42.297Z,1003.5
2018-05-03T05:07:44.672Z,1003.6
2018-05-03T05:08:47.063Z,1003.6
2018-05-03T05:09:49.437Z,1003.6
2018-05-03T05:10:51.827Z,1003.6
2018-05-03T05:11:54.207Z,1003.6
2018-05-03T05:12:56.593Z,1003.6
2018-05-03T05:13:58.982Z,1003.6
2018-05-03T05:15:01.370Z,1003.6
2018-05-03T05:16:03.745Z,1003.6
2018-05-03T05:17:06.419Z,1003.6
2018-05-03T05:18:08.798Z,1003.6
2018-05-03T05:19:11.561Z,1003.6
2018-05-03T05:20:13.942Z,1003.6
2018-05-03T05:21:16.716Z,1003.7
2018-05-03T05:22:19.099Z,1003.7
2018-05-03T05:23:21.490Z,1003.7
2018-05-03T05:24:23.868Z,1003.7
2018-05-03T05:25:26.531Z,1003.7
2018-05-03T05:26:28.931Z,1003.7
2018-05-03T05:27:31.313Z,1003.7
2018-05-03T05:28:33.687Z,1003.7
2018-05-03T05:29:36.075Z,1003.7
2018-05-03T05:30:38.495Z,1003.8
2018-05-03T05:31:41.475Z,1003.8
2018-05-03T05:32:44.248Z,1003.9
2018-05-03T05:33:46.626Z,1003.9
2018-05-03T05:34:49.000Z,1003.9
2018-05-03T05:35:51.782Z,1004
2018-05-03T05:36:54.160Z,1004
2018-05-03T05:37:56.821Z,1004
2018-05-03T05:38:59.557Z,1004
2018-05-03T05:40:01.876Z,1004
2018-05-03T05:41:04.267Z,1004
2018-05-03T05:42:06.661Z,1004
2018-05-03T05:43:09.039Z,1004
2018-05-03T05:44:11.419Z,1004.1
2018-05-03T05:45:14.543Z,1004.1
2018-05-03T05:46:16.916Z,1004.1
2018-05-03T05:47:19.307Z,1004.1
2018-05-03T05:48:22.275Z,1004.1
2018-05-03T05:49:25.018Z,1004.2
2018-05-03T05:50:28.308Z,1004.2
2018-05-03T05:51:30.692Z,1004.2
2018-05-03T05:52:33.087Z,1004.2
2018-05-03T05:53:35.451Z,1004.2
2018-05-03T05:54:37.827Z,1004.2
2018-05-03T05:55:40.206Z,1004.2
2018-05-03T05:56:42.945Z,1004.2
2018-05-03T05:57:45.251Z,1004.3
2018-05-03T05:58:47.919Z,1004.3
2018-05-03T05:59:50.569Z,1004.3
2018-05-03T06:00:52.969Z,1004.3
2018-05-03T06:01:55.353Z,1004.3
2018-05-03T06:02:57.731Z,1004.3
2018-05-03T06:04:00.121Z,1004.3
2018-05-03T06:05:02.499Z,1004.3
2018-05-03T06:06:05.157Z,1004.3
2018-05-03T06:07:07.828Z,1004.4
2018-05-03T06:08:10.213Z,1004.4
2018-05-03T06:09:12.885Z,1004.4
2018-05-03T06:10:15.567Z,1004.3
2018-05-03T06:11:18.252Z,1004.4
2018-05-03T06:12:20.716Z,1004.4
2018-05-03T06:13:22.983Z,1004.4
2018-05-03T06:14:25.753Z,1004.4
2018-05-03T06:15:28.816Z,1004.4
2018-05-03T06:16:31.194Z,1004.4
2018-05-03T06:17:33.578Z,1004.4
2018-05-03T06:18:36.245Z,1004.4
2018-05-03T06:19:38.631Z,1004.4
2018-05-03T06:20:41.974Z,1004.4
2018-05-03T06:21:44.359Z,1004.4
2018-05-03T06:22:47.123Z,1004.4
2018-05-03T06:23:49.498Z,1004.4
2018-05-03T06:24:52.272Z,1004.4
2018-05-03T06:25:55.062Z,1004.4
2018-05-03T06:26:57.354Z,1004.4
2018-05-03T06:28:00.420Z,1004.4
2018-05-03T06:29:02.804Z,1004.4
2018-05-03T06:30:05.190Z,1004.4
2018-05-03T06:31:07.592Z,1004.4
2018-05-03T06:32:09.976Z,1004.4
2018-05-03T06:33:12.348Z,1004.5
2018-05-03T06:34:15.018Z,1004.5
2018-05-03T06:35:17.700Z,1004.6
2018-05-03T06:36:20.083Z,1004.6
2018-05-03T06:37:22.474Z,1004.6
2018-05-03T06:38:24.851Z,1004.7
2018-05-03T06:39:27.516Z,1004.6
2018-05-03T06:40:30.221Z,1004.6
2018-05-03T06:41:32.598Z,1004.7
2018-05-03T06:42:34.981Z,1004.6
2018-05-03T06:43:37.661Z,1004.6
2018-05-03T06:44:40.427Z,1004.6
2018-05-03T06:45:42.819Z,1004.7
2018-05-03T06:46:45.204Z,1004.7
2018-05-03T06:47:47.573Z,1004.7
2018-05-03T06:48:49.964Z,1004.7
2018-05-03T06:49:52.635Z,1004.8
2018-05-03T06:50:55.015Z,1004.8
2018-05-03T06:51:57.680Z,1004.8
2018-05-03T06:53:00.068Z,1004.9
2018-05-03T06:54:02.450Z,1004.8
2018-05-03T06:55:05.119Z,1004.9
2018-05-03T06:56:07.507Z,1004.9
2018-05-03T06:57:09.898Z,1005
2018-05-03T06:58:12.567Z,1005
2018-05-03T06:59:15.227Z,1005
2018-05-03T07:00:17.899Z,1005
2018-05-03T07:01:20.288Z,1005.1
2018-05-03T07:02:22.673Z,1005.1
2018-05-03T07:03:25.442Z,1005.1
2018-05-03T07:04:27.840Z,1005.2
2018-05-03T07:05:30.618Z,1005.2
2018-05-03T07:06:32.997Z,1005.1
2018-05-03T07:07:35.388Z,1005.2
2018-05-03T07:08:38.064Z,1005.2
2018-05-03T07:09:40.439Z,1005.3
2018-05-03T07:10:43.111Z,1005.3
2018-05-03T07:11:45.518Z,1005.3
2018-05-03T07:12:47.896Z,1005.3
2018-05-03T07:13:50.298Z,1005.4
2018-05-03T07:14:52.968Z,1005.3
2018-05-03T07:15:55.355Z,1005.3
2018-05-03T07:16:57.746Z,1005.3
2018-05-03T07:18:00.128Z,1005.4
2018-05-03T07:19:02.814Z,1005.4
2018-05-03T07:20:05.581Z,1005.4
2018-05-03T07:21:07.968Z,1005.4
2018-05-03T07:22:10.363Z,1005.4
2018-05-03T07:23:12.740Z,1005.5
2018-05-03T07:24:15.132Z,1005.5
2018-05-03T07:25:17.914Z,1005.5
2018-05-03T07:26:20.309Z,1005.5
2018-05-03T07:27:22.693Z,1005.5
2018-05-03T07:28:25.090Z,1005.5
2018-05-03T07:29:27.846Z,1005.5
2018-05-03T07:30:30.152Z,1005.5
2018-05-03T07:31:32.536Z,1005.6
2018-05-03T07:32:34.919Z,1005.6
2018-05-03T07:33:37.305Z,1005.6
2018-05-03T07:34:39.696Z,1005.6
2018-05-03T07:35:42.479Z,1005.6
2018-05-03T07:36:44.876Z,1005.6
2018-05-03T07:37:47.261Z,1005.6
2018-05-03T07:38:49.640Z,1005.6
2018-05-03T07:39:52.036Z,1005.6
2018-05-03T07:40:54.487Z,1005.6
2018-05-03T07:41:57.129Z,1005.6
2018-05-03T07:42:59.903Z,1005.6
2018-05-03T07:44:02.572Z,1005.6
2018-05-03T07:45:04.963Z,1005.7
2018-05-03T07:46:07.350Z,1005.7
2018-05-03T07:47:09.736Z,1005.7
2018-05-03T07:48:12.117Z,1005.6
2018-05-03T07:49:14.560Z,1005.6
2018-05-03T07:50:16.895Z,1005.6
2018-05-03T07:51:19.290Z,1005.7
2018-05-03T07:52:21.980Z,1005.7
2018-05-03T07:53:24.376Z,1005.6
2018-05-03T07:54:27.032Z,1005.6
2018-05-03T07:55:29.423Z,1005.7
2018-05-03T07:56:32.103Z,1005.7
2018-05-03T07:57:34.486Z,1005.8
2018-05-03T07:58:36.872Z,1005.8
2018-05-03T07:59:39.657Z,1005.8
2018-05-03T08:00:42.036Z,1005.8
2018-05-03T08:01:44.435Z,1005.8
2018-05-03T08:02:47.016Z,1005.8
2018-05-03T08:03:49.680Z,1005.8
2018-05-03T08:04:52.358Z,1005.8
2018-05-03T08:05:54.743Z,1006
2018-05-03T08:06:57.131Z,1005.9
2018-05-03T08:07:59.527Z,1005.9
2018-05-03T08:09:01.909Z,1005.9
2018-05-03T08:10:04.302Z,1005.9
2018-05-03T08:11:06.700Z,1005.9
2018-05-03T08:12:09.081Z,1006
2018-05-03T08:13:11.470Z,1005.9
2018-05-03T08:14:13.859Z,1006
2018-05-03T08:15:16.239Z,1005.9
2018-05-03T08:16:18.628Z,1006.1
2018-05-03T08:17:21.292Z,1006
2018-05-03T08:18:23.967Z,1006
2018-05-03T08:19:26.353Z,1006
2018-05-03T08:20:28.743Z,1006
2018-05-03T08:21:31.136Z,1006.1
2018-05-03T08:22:33.523Z,1006.2
2018-05-03T08:23:35.919Z,1006.2
2018-05-03T08:24:38.305Z,1006.2
2018-05-03T08:25:40.699Z,1006.2
2018-05-03T08:26:43.080Z,1006.3
2018-05-03T08:27:45.485Z,1006.3
2018-05-03T08:28:47.892Z,1006.3
2018-05-03T08:29:50.268Z,1006.4
2018-05-03T08:30:52.656Z,1006.4
2018-05-03T08:31:55.118Z,1006.5
2018-05-03T08:32:57.886Z,1006.5
2018-05-03T08:34:00.280Z,1006.5
2018-05-03T08:35:02.657Z,1006.5
2018-05-03T08:36:05.050Z,1006.5
2018-05-03T08:37:07.448Z,1006.5
2018-05-03T08:38:09.832Z,1006.5
2018-05-03T08:39:12.226Z,1006.6
2018-05-03T08:40:14.999Z,1006.6
2018-05-03T08:41:17.386Z,1006.7
2018-05-03T08:42:19.780Z,1006.7
2018-05-03T08:43:22.174Z,1006.6
2018-05-03T08:44:24.568Z,1006.6
2018-05-03T08:45:26.976Z,1006.7
2018-05-03T08:46:29.740Z,1006.7
2018-05-03T08:47:32.134Z,1006.7
2018-05-03T08:48:34.819Z,1006.7
2018-05-03T08:49:37.210Z,1006.8
2018-05-03T08:50:40.232Z,1006.8
2018-05-03T08:51:42.904Z,1006.8
2018-05-03T08:52:45.299Z,1006.8
2018-05-03T08:53:48.081Z,1006.8
2018-05-03T08:54:50.468Z,1006.8
2018-05-03T08:55:53.240Z,1006.9
2018-05-03T08:56:55.840Z,1006.7
2018-05-03T08:57:58.616Z,1006.9
2018-05-03T08:59:01.072Z,1006.9
2018-05-03T09:00:03.463Z,1006.9
2018-05-03T09:01:05.852Z,1006.9
2018-05-03T09:02:08.250Z,1007
2018-05-03T09:03:10.914Z,1007.1
2018-05-03T09:04:13.688Z,1007
2018-05-03T09:05:16.087Z,1007
2018-05-03T09:06:18.755Z,1007
2018-05-03T09:07:21.149Z,1007.1
2018-05-03T09:08:23.676Z,1007.1
2018-05-03T09:09:26.180Z,1007.1
2018-05-03T09:10:28.703Z,1007.1
2018-05-03T09:11:31.655Z,1007.1
2018-05-03T09:12:34.072Z,1007.1
2018-05-03T09:13:36.872Z,1007.1
2018-05-03T09:14:39.252Z,1007.1
2018-05-03T09:15:42.017Z,1007.2
2018-05-03T09:16:44.698Z,1007.1
2018-05-03T09:17:47.261Z,1007.2
2018-05-03T09:18:49.948Z,1007.1
2018-05-03T09:19:52.455Z,1007.1
2018-05-03T09:20:55.222Z,1007.2
2018-05-03T09:21:57.641Z,1007.2
2018-05-03T09:23:00.027Z,1007.2
2018-05-03T09:24:02.481Z,1007.2
2018-05-03T09:25:05.374Z,1007.2
2018-05-03T09:26:09.057Z,1007.3
2018-05-03T09:27:11.535Z,1007.3
2018-05-03T09:28:14.091Z,1007.3
2018-05-03T09:29:16.920Z,1007.2
2018-05-03T09:30:19.727Z,1007.3
2018-05-03T09:31:22.404Z,1007.3
2018-05-03T09:32:25.866Z,1007.3
2018-05-03T09:33:28.682Z,1007.3
2018-05-03T09:34:31.086Z,1007.3
2018-05-03T09:35:33.601Z,1007.3
2018-05-03T09:36:36.027Z,1007.3
2018-05-03T09:37:38.546Z,1007.3
2018-05-03T09:38:40.935Z,1007.3
2018-05-03T09:39:43.337Z,1007.3
2018-05-03T09:40:46.016Z,1007.3
2018-05-03T09:41:48.412Z,1007.4
2018-05-03T09:42:50.817Z,1007.4
2018-05-03T09:43:53.207Z,1007.3
2018-05-03T09:44:55.904Z,1007.4
2018-05-03T09:45:58.310Z,1007.4
2018-05-03T09:47:00.985Z,1007.5
2018-05-03T09:48:03.367Z,1007.5
2018-05-03T09:49:05.762Z,1007.5
2018-05-03T09:50:08.154Z,1007.5
2018-05-03T09:51:10.842Z,1007.4
2018-05-03T09:52:13.235Z,1007.4
2018-05-03T09:53:15.635Z,1007.4
2018-05-03T09:54:18.031Z,1007.5
2018-05-03T09:55:20.425Z,1007.5
2018-05-03T09:56:22.831Z,1007.5
2018-05-03T09:57:25.221Z,1007.5
2018-05-03T09:58:28.293Z,1007.5
2018-05-03T09:59:31.189Z,1007.6
2018-05-03T10:00:33.461Z,1007.6
2018-05-03T10:01:36.238Z,1007.6
2018-05-03T10:02:38.639Z,1007.7
2018-05-03T10:03:41.604Z,1007.7
2018-05-03T10:04:44.091Z,1007.5
2018-05-03T10:05:46.406Z,1007.8
2018-05-03T10:06:48.797Z,1007.7
2018-05-03T10:07:51.192Z,1007.7
2018-05-03T10:08:53.867Z,1007.7
2018-05-03T10:09:56.258Z,1007.8
2018-05-03T10:10:59.310Z,1007.8
2018-05-03T10:12:01.720Z,1007.7
2018-05-03T10:13:04.493Z,1007.8
2018-05-03T10:14:06.887Z,1007.8
2018-05-03T10:15:09.554Z,1007.8
2018-05-03T10:16:12.246Z,1007.8
2018-05-03T10:17:14.636Z,1007.8
2018-05-03T10:18:17.038Z,1007.9
2018-05-03T10:19:19.990Z,1007.8
2018-05-03T10:20:22.397Z,1007.9
2018-05-03T10:21:24.783Z,1007.8
2018-05-03T10:22:27.175Z,1007.9
2018-05-03T10:23:29.572Z,1008
2018-05-03T10:24:31.974Z,1007.9
2018-05-03T10:25:34.659Z,1007.9
2018-05-03T10:26:37.049Z,1008
2018-05-03T10:27:39.439Z,1007.9
2018-05-03T10:28:41.841Z,1007.9
2018-05-03T10:29:44.239Z,1007.9
2018-05-03T10:30:46.631Z,1008
2018-05-03T10:31:49.022Z,1008
2018-05-03T10:32:51.413Z,1007.8
2018-05-03T10:33:53.822Z,1008.1
2018-05-03T10:34:56.205Z,1008.1
2018-05-03T10:35:58.688Z,1008
2018-05-03T10:37:01.880Z,1008
2018-05-03T10:38:04.887Z,1008.1
2018-05-03T10:39:07.283Z,1008
2018-05-03T10:40:09.963Z,1008.1
2018-05-03T10:41:12.354Z,1008.1
2018-05-03T10:42:14.759Z,1008.2
2018-05-03T10:43:17.930Z,1008.2
2018-05-03T10:44:20.324Z,1008.1
2018-05-03T10:45:22.721Z,1008.2
2018-05-03T10:46:25.120Z,1008.1
2018-05-03T10:47:27.516Z,1008.2
2018-05-03T10:48:29.964Z,1008.1
2018-05-03T10:49:32.320Z,1008.2
2018-05-03T10:50:34.722Z,1008.2
2018-05-03T10:51:37.120Z,1008.2
2018-05-03T10:52:39.519Z,1008.2
2018-05-03T10:53:41.919Z,1008.2
2018-05-03T10:54:44.318Z,1008.2
2018-05-03T10:55:47.011Z,1008.2
2018-05-03T10:56:49.407Z,1008.3
2018-05-03T10:57:51.805Z,1008.3
2018-05-03T10:58:54.213Z,1008.3
2018-05-03T10:59:57.167Z,1008.3
2018-05-03T11:01:00.137Z,1008.4
2018-05-03T11:02:02.529Z,1008.3
2018-05-03T11:03:05.595Z,1008.3
2018-05-03T11:04:07.993Z,1008.4
2018-05-03T11:05:10.411Z,1008.3
2018-05-03T11:06:13.104Z,1008.3
2018-05-03T11:07:15.514Z,1008.3
2018-05-03T11:08:18.206Z,1008.4
2018-05-03T11:09:20.589Z,1008.4
2018-05-03T11:10:22.991Z,1008.5
2018-05-03T11:11:25.387Z,1008.4
2018-05-03T11:12:27.793Z,1008.5
2018-05-03T11:13:30.181Z,1008.5
2018-05-03T11:14:32.575Z,1008.5
2018-05-03T11:15:35.275Z,1008.5
2018-05-03T11:16:37.695Z,1008.5
2018-05-03T11:17:40.093Z,1008.5
2018-05-03T11:18:42.487Z,1008.5
2018-05-03T11:19:44.888Z,1008.5
2018-05-03T11:20:47.571Z,1008.6
2018-05-03T11:21:49.969Z,1008.5
2018-05-03T11:22:52.360Z,1008.6
2018-05-03T11:23:54.773Z,1008.6
2018-05-03T11:24:57.463Z,1008.6
2018-05-03T11:25:59.883Z,1008.7
2018-05-03T11:27:02.262Z,1008.7
2018-05-03T11:28:05.048Z,1008.8
2018-05-03T11:29:07.447Z,1008.8
2018-05-03T11:30:10.132Z,1008.8
2018-05-03T11:31:12.523Z,1008.8
2018-05-03T11:32:14.928Z,1008.8
2018-05-03T11:33:17.613Z,1008.8
2018-05-03T11:34:20.008Z,1008.8
2018-05-03T11:35:22.690Z,1008.8
2018-05-03T11:36:25.388Z,1008.9
2018-05-03T11:37:28.148Z,1008.8
2018-05-03T11:38:30.464Z,1008.9
2018-05-03T11:39:32.862Z,1008.9
2018-05-03T11:40:35.552Z,1008.9
2018-05-03T11:41:37.957Z,1008.9
2018-05-03T11:42:40.367Z,1008.9
2018-05-03T11:43:43.053Z,1008.9
2018-05-03T11:44:46.016Z,1008.9
2018-05-03T11:45:48.417Z,1008.9
2018-05-03T11:46:51.381Z,1009
2018-05-03T11:47:54.057Z,1008.9
2018-05-03T11:48:56.461Z,1008.9
2018-05-03T11:49:59.121Z,1008.9
2018-05-03T11:51:01.529Z,1009
2018-05-03T11:52:03.922Z,1009
2018-05-03T11:53:06.599Z,1009
2018-05-03T11:54:08.999Z,1008.9
2018-05-03T11:55:11.401Z,1008.9
2018-05-03T11:56:13.786Z,1009
2018-05-03T11:57:16.195Z,1008.9
2018-05-03T11:58:18.972Z,1008.9
2018-05-03T11:59:21.464Z,1008.8
2018-05-03T12:00:24.585Z,1008.9
2018-05-03T12:01:26.989Z,1008.8
2018-05-03T12:02:29.686Z,1008.9
2018-05-03T12:03:32.075Z,1008.9
2018-05-03T12:04:34.771Z,1009
2018-05-03T12:05:37.172Z,1008.9
2018-05-03T12:06:39.585Z,1009
2018-05-03T12:07:41.981Z,1009
2018-05-03T12:08:44.661Z,1009
2018-05-03T12:09:47.069Z,1008.9
2018-05-03T12:10:49.463Z,1009
2018-05-03T12:11:52.444Z,1009
2018-05-03T12:12:54.738Z,1009
2018-05-03T12:13:57.693Z,1009
2018-05-03T12:15:00.094Z,1009
2018-05-03T12:16:02.488Z,1009
2018-05-03T12:17:05.278Z,1009
2018-05-03T12:18:07.670Z,1009.1
2018-05-03T12:19:10.353Z,1009
2018-05-03T12:20:12.752Z,1009
2018-05-03T12:21:15.157Z,1009.1
2018-05-03T12:22:17.549Z,1009.1
2018-05-03T12:23:19.960Z,1009
2018-05-03T12:24:22.458Z,1009
2018-05-03T12:25:24.765Z,1009
2018-05-03T12:26:27.170Z,1009.1
2018-05-03T12:27:29.867Z,1009.1
2018-05-03T12:28:32.281Z,1009.1
2018-05-03T12:29:34.960Z,1009.1
2018-05-03T12:30:37.353Z,1009.1
2018-05-03T12:31:39.757Z,1009.1
2018-05-03T12:32:42.160Z,1009.2
2018-05-03T12:33:44.559Z,1009.1
2018-05-03T12:34:47.367Z,1009.2
2018-05-03T12:35:50.162Z,1009.2
2018-05-03T12:36:52.847Z,1009.2
2018-05-03T12:37:55.250Z,1009.2
2018-05-03T12:38:57.649Z,1009.1
2018-05-03T12:40:00.041Z,1009.2
2018-05-03T12:41:02.452Z,1009.1
2018-05-03T12:42:05.525Z,1009.1
2018-05-03T12:43:07.931Z,1009.1
2018-05-03T12:44:10.630Z,1009.1
2018-05-03T12:45:13.028Z,1009.1
2018-05-03T12:46:15.431Z,1009.2
2018-05-03T12:47:17.845Z,1009.2
2018-05-03T12:48:20.243Z,1009.2
2018-05-03T12:49:22.644Z,1009.2
2018-05-03T12:50:25.050Z,1009.3
2018-05-03T12:51:27.733Z,1009.2
2018-05-03T12:52:30.407Z,1009.2
2018-05-03T12:53:32.803Z,1009.2
2018-05-03T12:54:35.219Z,1009.2
2018-05-03T12:55:37.936Z,1009.3
2018-05-03T12:56:40.986Z,1009.2
2018-05-03T12:57:43.710Z,1009.4
2018-05-03T12:58:46.113Z,1009.2
2018-05-03T12:59:48.517Z,1009.3
2018-05-03T13:00:51.005Z,1009.3
2018-05-03T13:01:53.317Z,1009.3
2018-05-03T13:02:55.722Z,1009.3
2018-05-03T13:03:58.131Z,1009.3
2018-05-03T13:05:00.536Z,1009.4